Time;durP1;ratioP1;P1;durP2;ratioP2;P2;SDS_P1;SDS_P2;PMS_P1;PMS_P2;Temp;Humidity;BMP_temperature;BMP_pressure;BME280_temperature;BME280_humidity;BME280_pressure;Samples;Min_cycle;Max_cycle;Signal;HPM_P1;HPM_P2
2021/11/12 00:15:20;;;;;;;221.97;46.53;;;2.90;99.90;;;;;;4912765;29;20429;-72
2021/11/12 00:17:46;;;;;;;132.53;42.87;;;2.90;99.90;;;;;;4912899;29;20832;-71
2021/11/12 00:20:12;;;;;;;186.17;43.30;;;3.00;99.90;;;;;;4913219;29;20197;-71
2021/11/12 00:22:37;;;;;;;167.60;43.17;;;3.00;99.90;;;;;;4914896;29;20211;-72
2021/11/12 00:25:03;;;;;;;228.50;44.20;;;3.00;99.90;;;;;;4914874;29;20185;-71
2021/11/12 00:27:32;;;;;;;254.73;49.57;;;2.90;99.90;;;;;;4929676;29;20206;-71
2021/11/12 00:32:35;;;;;;;191.33;44.03;;;2.90;99.90;;;;;;4914567;29;20884;-71
2021/11/12 00:35:25;;;;;;;167.40;40.90;;;2.90;99.90;;;;;;4914989;29;20181;-71
2021/11/12 00:38:10;;;;;;;120.47;40.23;;;2.90;99.90;;;;;;4914823;29;20392;-70
2021/11/12 00:40:47;;;;;;;157.20;41.23;;;2.90;99.90;;;;;;4915126;29;20849;-72
2021/11/12 00:43:37;;;;;;;149.30;42.47;;;2.90;99.90;;;;;;4914585;29;20423;-72
2021/11/12 00:46:11;;;;;;;151.83;43.47;;;3.00;99.90;;;;;;4914453;29;20447;-72
2021/11/12 00:48:45;;;;;;;149.67;42.30;;;2.90;99.90;;;;;;4914937;29;20441;-72
2021/11/12 00:51:18;;;;;;;159.70;41.20;;;2.90;99.90;;;;;;4915452;29;20438;-72
2021/11/12 00:56:22;;;;;;;231.00;41.27;;;3.00;99.90;;;;;;4918548;29;20941;-73
2021/11/12 00:58:48;;;;;;;179.90;42.53;;;2.90;99.90;;;;;;4918295;29;20555;-72
2021/11/12 05:33:41;;;;;;;171.03;35.00;;;2.00;99.90;;;;;;4930557;29;20515;-74
2021/11/12 05:44:24;;;;;;;155.47;35.00;;;1.90;99.90;;;;;;4936196;29;20509;-75
2021/11/12 05:57:05;;;;;;;127.87;31.23;;;2.00;99.90;;;;;;4936702;29;20425;-75
2021/11/12 05:59:30;;;;;;;164.00;37.43;;;1.80;99.90;;;;;;4936278;29;20927;-74
2021/11/12 06:01:56;;;;;;;161.23;35.20;;;1.80;99.90;;;;;;4935982;29;20425;-74
2021/11/12 06:04:22;;;;;;;203.80;38.23;;;1.80;99.90;;;;;;4935985;29;20187;-75
2021/11/12 06:06:47;;;;;;;246.73;35.53;;;1.80;99.90;;;;;;4936214;29;20678;-74
2021/11/12 06:09:13;;;;;;;258.90;40.90;;;1.80;99.90;;;;;;4936317;29;20192;-74
2021/11/12 06:11:39;;;;;;;212.07;36.30;;;1.80;99.90;;;;;;4936119;29;20229;-74
2021/11/12 06:14:05;;;;;;;148.87;33.83;;;1.90;99.90;;;;;;4935901;29;20181;-74
2021/11/12 06:16:31;;;;;;;148.03;38.20;;;1.90;99.90;;;;;;4936074;29;20188;-75
2021/11/12 06:18:56;;;;;;;94.37;35.83;;;1.90;99.90;;;;;;4935928;29;20194;-74
2021/11/12 06:21:23;;;;;;;191.90;36.20;;;1.90;99.90;;;;;;4935895;29;20453;-74
2021/11/12 06:23:49;;;;;;;132.33;34.47;;;2.00;99.90;;;;;;4924487;29;20414;-74
2021/11/12 06:26:15;;;;;;;115.20;33.60;;;1.90;99.90;;;;;;4916732;29;20812;-74
2021/11/12 06:28:41;;;;;;;245.77;35.20;;;2.00;99.90;;;;;;4916968;29;20212;-74
2021/11/12 06:31:06;;;;;;;249.67;38.27;;;1.90;99.90;;;;;;4916585;29;20260;-72
2021/11/12 06:33:32;;;;;;;174.73;35.50;;;1.80;99.90;;;;;;4917279;29;20186;-73
2021/11/12 06:35:58;;;;;;;228.40;37.20;;;1.70;99.90;;;;;;4917237;29;20258;-72
2021/11/12 06:38:28;;;;;;;102.23;34.40;;;1.70;99.90;;;;;;4917203;29;20205;-73
2021/11/12 06:40:56;;;;;;;255.00;38.60;;;1.70;99.90;;;;;;4931920;29;20458;-72
2021/11/12 06:51:21;;;;;;;139.27;34.20;;;1.90;99.90;;;;;;4916861;29;20441;-72
2021/11/12 06:53:47;;;;;;;105.47;32.80;;;2.00;99.90;;;;;;4916593;29;20426;-72
2021/11/12 06:56:13;;;;;;;102.27;34.27;;;2.00;99.90;;;;;;4916626;29;20412;-73
2021/11/12 06:58:40;;;;;;;147.40;34.60;;;2.10;99.90;;;;;;4916584;29;20399;-73
2021/11/12 07:01:07;;;;;;;139.17;34.20;;;2.10;99.90;;;;;;4916384;29;20231;-72
2021/11/12 07:03:34;;;;;;;82.20;30.07;;;2.10;99.90;;;;;;4916446;29;20826;-74
2021/11/12 07:05:59;;;;;;;116.20;31.60;;;2.10;99.90;;;;;;4916290;29;20401;-73
2021/11/12 07:08:25;;;;;;;218.13;34.70;;;2.20;99.90;;;;;;4916330;29;20414;-72
2021/11/12 07:10:52;;;;;;;207.10;38.40;;;2.10;99.90;;;;;;4921172;29;20426;-73
2021/11/12 07:13:24;;;;;;;101.87;32.20;;;2.00;99.90;;;;;;4923616;29;20553;-73
2021/11/12 07:15:50;;;;;;;186.10;35.30;;;2.00;99.90;;;;;;4931287;29;20436;-73
2021/11/12 07:18:15;;;;;;;209.33;34.33;;;2.00;99.90;;;;;;4916434;29;20474;-73
2021/11/12 07:20:41;;;;;;;225.83;34.37;;;2.10;99.90;;;;;;4916093;29;20185;-74
2021/11/12 07:23:06;;;;;;;158.27;32.13;;;1.90;99.90;;;;;;4915856;29;20192;-74
2021/11/12 07:25:32;;;;;;;129.60;32.37;;;1.90;99.90;;;;;;4916140;29;20219;-73
2021/11/12 07:27:58;;;;;;;124.47;31.93;;;1.90;99.90;;;;;;4915969;29;20569;-72
2021/11/12 07:30:23;;;;;;;169.30;31.57;;;2.00;99.90;;;;;;4916154;29;20809;-72
2021/11/12 07:32:50;;;;;;;153.83;30.43;;;2.00;99.90;;;;;;4915780;29;20277;-73
2021/11/12 07:35:21;;;;;;;83.43;28.90;;;2.00;99.90;;;;;;4930330;29;20281;-70
2021/11/12 07:37:47;;;;;;;108.53;30.10;;;2.00;99.90;;;;;;4915893;29;20393;-70
2021/11/12 07:40:21;;;;;;;93.70;32.17;;;2.10;99.90;;;;;;4915722;29;20430;-70
2021/11/12 07:43:20;;;;;;;91.50;30.27;;;2.20;99.90;;;;;;4915456;29;20200;-70
2021/11/12 07:45:52;;;;;;;101.33;32.53;;;2.30;99.90;;;;;;4916792;29;20885;-70
2021/11/12 07:48:18;;;;;;;121.20;31.47;;;2.30;99.90;;;;;;4915645;29;20417;-70
2021/11/12 07:50:44;;;;;;;76.13;30.30;;;2.30;99.90;;;;;;4915593;29;20488;-70
2021/11/12 07:53:09;;;;;;;83.77;32.37;;;2.40;99.90;;;;;;4915178;29;20177;-70
2021/11/12 07:55:35;;;;;;;89.37;30.17;;;2.40;99.90;;;;;;4915567;29;20276;-68
2021/11/12 07:58:00;;;;;;;78.73;29.60;;;2.40;99.90;;;;;;4915338;29;20187;-71
2021/11/12 08:00:26;;;;;;;77.43;31.70;;;2.40;99.90;;;;;;4915209;29;20555;-68
2021/11/12 08:02:52;;;;;;;73.83;28.50;;;2.40;99.90;;;;;;4915251;29;20189;-70
2021/11/12 08:05:26;;;;;;;102.00;30.10;;;2.40;99.90;;;;;;4928965;29;20276;-70
2021/11/12 08:07:54;;;;;;;118.63;30.50;;;2.50;99.90;;;;;;4934241;29;20801;-70
2021/11/12 08:10:22;;;;;;;98.13;29.53;;;2.50;99.90;;;;;;4934459;29;20468;-70
2021/11/12 08:13:06;;;;;;;111.80;32.17;;;2.60;99.90;;;;;;4933980;29;20489;-70
2021/11/12 08:15:44;;;;;;;63.80;28.33;;;2.50;99.90;;;;;;4934465;29;20763;-70
2021/11/12 08:18:24;;;;;;;74.27;30.20;;;2.60;99.90;;;;;;4949221;29;20817;-70
2021/11/12 08:26:15;;;;;;;62.83;29.00;;;2.80;99.90;;;;;;4926116;29;20857;-73
2021/11/12 08:33:51;;;;;;;71.27;30.30;;;3.00;99.90;;;;;;4934125;29;20421;-73
2021/11/12 08:41:42;;;;;;;59.77;29.63;;;3.20;99.90;;;;;;4934319;29;20951;-71
2021/11/12 08:47:10;;;;;;;52.60;28.67;;;3.20;99.90;;;;;;4924003;29;20494;-72
2021/11/12 08:49:38;;;;;;;56.13;29.23;;;3.20;99.90;;;;;;4934005;29;20458;-72
2021/11/12 08:52:06;;;;;;;55.00;28.40;;;3.30;99.90;;;;;;4933157;29;20438;-72
2021/11/12 08:54:36;;;;;;;53.63;29.20;;;3.40;99.90;;;;;;4934083;29;20408;-73
2021/11/12 08:57:07;;;;;;;67.10;30.20;;;3.40;99.90;;;;;;4933923;29;20410;-74
2021/11/12 08:59:33;;;;;;;50.20;26.63;;;3.50;99.90;;;;;;4948816;29;20445;-73
2021/11/12 09:02:00;;;;;;;65.53;29.77;;;3.50;99.90;;;;;;4948765;29;20450;-71
2021/11/12 09:04:25;;;;;;;54.67;28.60;;;3.50;99.90;;;;;;4948822;29;20186;-72
2021/11/12 09:06:51;;;;;;;67.57;28.10;;;3.50;99.90;;;;;;4934220;29;20453;-72
2021/11/12 09:09:17;;;;;;;54.40;30.17;;;3.40;99.90;;;;;;4929569;29;20633;-72
2021/11/12 09:11:43;;;;;;;51.70;28.40;;;3.50;99.90;;;;;;4947847;28;20256;-71
2021/11/12 09:14:15;;;;;;;106.20;29.47;;;3.50;99.90;;;;;;4955966;28;20415;-70
2021/11/12 09:16:44;;;;;;;48.50;27.33;;;3.50;99.90;;;;;;4956650;28;20296;-72
2021/11/12 09:19:10;;;;;;;53.70;28.30;;;3.50;99.90;;;;;;4956437;28;20424;-73
2021/11/12 09:21:35;;;;;;;56.30;29.70;;;3.60;99.90;;;;;;4956277;28;20939;-70
2021/11/12 09:24:02;;;;;;;55.03;29.93;;;3.50;99.90;;;;;;4956037;28;20194;-72
2021/11/12 09:26:28;;;;;;;58.17;30.43;;;3.50;99.90;;;;;;4956264;29;20623;-72
2021/11/12 09:28:54;;;;;;;50.83;27.80;;;3.50;99.90;;;;;;4956069;28;20450;-72
2021/11/12 09:31:20;;;;;;;60.43;32.03;;;3.60;99.90;;;;;;4956016;29;20479;-71
2021/11/12 09:33:46;;;;;;;57.80;30.83;;;3.70;99.90;;;;;;4956059;28;20408;-72
2021/11/12 09:36:12;;;;;;;74.33;32.00;;;3.70;99.90;;;;;;4955935;28;20783;-71
2021/11/12 09:38:40;;;;;;;60.80;30.47;;;3.80;99.90;;;;;;4956115;28;20409;-73
2021/11/12 09:41:07;;;;;;;53.13;28.63;;;3.80;99.90;;;;;;4955647;29;20490;-71
2021/11/12 09:43:33;;;;;;;58.70;30.40;;;3.80;99.90;;;;;;4955518;29;20410;-72
2021/11/12 09:45:59;;;;;;;51.03;29.07;;;3.90;99.90;;;;;;4955691;28;21081;-72
2021/11/12 09:48:25;;;;;;;53.70;30.10;;;3.90;99.90;;;;;;4955849;29;20392;-72
2021/11/12 09:50:52;;;;;;;64.67;29.83;;;3.90;99.90;;;;;;4955629;29;20200;-71
2021/11/12 09:53:18;;;;;;;60.80;30.27;;;4.00;99.90;;;;;;4955581;28;20417;-72
2021/11/12 09:55:44;;;;;;;49.67;28.57;;;4.00;99.90;;;;;;4955761;28;20783;-72
2021/11/12 09:58:11;;;;;;;56.97;29.17;;;4.00;99.90;;;;;;4955592;29;20461;-72
2021/11/12 10:00:39;;;;;;;56.43;29.47;;;4.00;99.90;;;;;;4955573;28;20420;-72
2021/11/12 10:03:07;;;;;;;53.93;29.60;;;4.00;99.90;;;;;;4955259;28;20425;-72
2021/11/12 10:05:46;;;;;;;52.13;28.60;;;4.00;99.90;;;;;;4955990;28;20400;-72
2021/11/12 10:08:24;;;;;;;62.50;30.53;;;4.00;99.90;;;;;;4955437;28;20487;-71
2021/11/12 10:10:52;;;;;;;53.20;30.73;;;3.90;99.90;;;;;;4955285;28;20510;-72
2021/11/12 10:13:27;;;;;;;50.03;30.80;;;3.90;99.90;;;;;;4955070;29;20393;-72
2021/11/12 10:16:05;;;;;;;50.13;29.67;;;4.00;99.90;;;;;;4955357;28;20412;-71
2021/11/12 10:18:31;;;;;;;74.57;32.13;;;3.90;99.90;;;;;;4954215;29;20501;-72
2021/11/12 10:20:59;;;;;;;59.67;30.83;;;4.00;99.90;;;;;;4955003;28;20540;-72
2021/11/12 10:23:32;;;;;;;54.43;32.00;;;4.00;99.90;;;;;;4954819;28;20185;-72
2021/11/12 10:26:05;;;;;;;61.57;31.20;;;4.10;99.90;;;;;;4953665;28;20456;-72
2021/11/12 10:28:38;;;;;;;63.00;31.63;;;4.10;99.90;;;;;;4955303;29;20427;-72
2021/11/12 10:31:16;;;;;;;55.00;30.67;;;4.10;99.90;;;;;;4954768;28;20958;-73
2021/11/12 10:33:42;;;;;;;63.70;33.73;;;4.20;99.90;;;;;;4954967;28;20427;-72
2021/11/12 10:36:09;;;;;;;54.33;30.40;;;4.10;99.90;;;;;;4955093;28;20907;-72
2021/11/12 10:38:41;;;;;;;55.73;31.90;;;4.10;99.90;;;;;;4955054;28;20429;-71
2021/11/12 10:41:21;;;;;;;57.60;29.90;;;4.20;99.90;;;;;;4954750;28;20450;-72
2021/11/12 10:43:48;;;;;;;48.23;27.23;;;4.30;99.90;;;;;;4954158;28;20425;-73
2021/11/12 10:46:14;;;;;;;51.97;30.63;;;4.30;99.90;;;;;;4954660;29;20512;-72
2021/11/12 10:48:40;;;;;;;51.13;30.50;;;4.30;99.90;;;;;;4954565;28;20458;-72
2021/11/12 10:51:17;;;;;;;57.00;31.40;;;4.40;99.90;;;;;;4954638;29;20742;-73
2021/11/12 10:53:51;;;;;;;53.43;29.60;;;4.40;99.90;;;;;;4954614;29;20324;-73
2021/11/12 10:56:18;;;;;;;51.27;29.50;;;4.40;99.90;;;;;;4954479;29;20401;-72
2021/11/12 10:58:58;;;;;;;56.77;31.57;;;4.40;99.90;;;;;;4954722;28;20388;-73
2021/11/12 11:01:35;;;;;;;66.40;31.23;;;4.30;99.90;;;;;;4954542;29;20443;-72
2021/11/12 11:04:20;;;;;;;59.97;30.67;;;4.30;99.90;;;;;;4954482;28;20817;-72
2021/11/12 11:06:48;;;;;;;65.83;32.83;;;4.20;99.90;;;;;;4954559;28;20553;-73
2021/11/12 11:09:14;;;;;;;59.63;31.53;;;4.10;99.90;;;;;;4954414;28;20422;-73
2021/11/12 11:11:45;;;;;;;67.30;34.00;;;4.10;99.90;;;;;;4954424;28;20992;-73
2021/11/12 11:14:34;;;;;;;57.70;32.67;;;4.20;99.90;;;;;;4952972;29;20236;-72
2021/11/12 11:17:24;;;;;;;59.43;34.10;;;4.20;99.90;;;;;;4948909;28;20826;-72
2021/11/12 11:19:49;;;;;;;62.93;34.03;;;4.30;99.90;;;;;;4954231;28;20436;-73
2021/11/12 11:22:16;;;;;;;61.17;33.63;;;4.50;99.90;;;;;;4953663;29;20517;-73
2021/11/12 11:24:42;;;;;;;54.10;32.60;;;4.60;99.90;;;;;;4954350;28;20266;-73
2021/11/12 11:27:07;;;;;;;61.63;34.07;;;4.70;99.90;;;;;;4953962;28;20551;-73
2021/11/12 11:29:33;;;;;;;55.40;32.67;;;4.60;99.90;;;;;;4954077;28;20170;-72
2021/11/12 11:32:01;;;;;;;55.67;33.60;;;4.70;99.90;;;;;;4953695;28;20220;-73
2021/11/12 11:34:27;;;;;;;56.10;32.60;;;4.80;99.90;;;;;;4953607;28;20173;-73
2021/11/12 11:36:57;;;;;;;55.53;31.97;;;4.80;99.90;;;;;;4953976;28;20446;-74
2021/11/12 11:39:24;;;;;;;56.73;34.07;;;4.90;99.90;;;;;;4954045;28;20538;-74
2021/11/12 11:41:50;;;;;;;63.33;32.90;;;5.00;99.90;;;;;;4953810;29;20428;-74
2021/11/12 11:44:17;;;;;;;55.27;32.70;;;5.10;99.90;;;;;;4953532;29;20422;-73
2021/11/12 11:46:45;;;;;;;57.23;32.90;;;5.20;99.90;;;;;;4953760;28;20197;-73
2021/11/12 11:49:16;;;;;;;58.07;33.07;;;5.20;99.90;;;;;;4953571;28;20403;-72
2021/11/12 11:51:59;;;;;;;55.07;32.93;;;5.30;99.90;;;;;;4953765;29;20445;-73
2021/11/12 11:54:33;;;;;;;55.13;31.60;;;5.30;99.90;;;;;;4953607;28;20554;-73
2021/11/12 11:57:09;;;;;;;56.73;31.57;;;5.30;99.90;;;;;;4953559;28;20787;-73
2021/11/12 11:59:36;;;;;;;55.03;34.17;;;5.40;99.90;;;;;;4953726;28;20416;-74
2021/11/12 12:02:09;;;;;;;58.50;35.30;;;5.50;99.90;;;;;;4953273;29;20794;-73
2021/11/12 12:04:37;;;;;;;54.67;32.73;;;5.60;99.90;;;;;;4953722;28;20447;-71
2021/11/12 12:07:03;;;;;;;63.03;32.13;;;5.70;99.90;;;;;;4953197;28;20455;-71
2021/11/12 12:09:59;;;;;;;60.03;34.27;;;5.80;99.90;;;;;;4953505;28;20404;-71
2021/11/12 12:12:30;;;;;;;50.93;31.27;;;5.80;99.90;;;;;;4953217;28;20192;-73
2021/11/12 12:15:03;;;;;;;53.83;32.97;;;5.90;99.90;;;;;;4953663;28;20418;-73
2021/11/12 12:17:31;;;;;;;53.37;34.27;;;5.90;99.90;;;;;;4953658;28;20449;-74
2021/11/12 12:34:52;;;;;;;53.50;32.33;;;6.00;99.90;;;;;;4953143;29;20804;-73
2021/11/12 13:18:59;;;;;;;54.83;32.90;;;6.60;99.90;;;;;;4953152;28;20443;-73
2021/11/12 13:22:40;;;;;;;59.00;35.93;;;6.40;99.90;;;;;;4928542;29;20954;-73
2021/11/12 13:25:11;;;;;;;52.53;35.10;;;6.40;99.90;;;;;;4928412;29;20799;-72
2021/11/12 13:27:38;;;;;;;61.70;35.73;;;6.40;99.90;;;;;;4929800;29;20502;-73
2021/11/12 13:30:06;;;;;;;62.37;35.43;;;6.30;99.90;;;;;;4936679;29;20415;-73
2021/11/12 13:32:37;;;;;;;63.70;36.87;;;6.30;99.90;;;;;;4936673;29;20444;-73
2021/11/12 13:35:03;;;;;;;56.03;34.17;;;6.40;99.90;;;;;;4937068;29;20425;-72
2021/11/12 13:37:29;;;;;;;58.50;36.50;;;6.30;99.90;;;;;;4936887;29;20427;-71
2021/11/12 13:40:10;;;;;;;56.60;35.80;;;6.20;99.90;;;;;;4944879;29;20434;-70
2021/11/12 13:42:46;;;;;;;59.93;35.80;;;6.20;99.90;;;;;;4930496;29;20197;-70
2021/11/12 13:45:24;;;;;;;66.57;37.80;;;6.20;99.90;;;;;;4930719;29;20432;-70
2021/11/12 13:48:11;;;;;;;60.57;34.90;;;6.10;99.90;;;;;;4938106;29;20544;-71
2021/11/12 13:50:42;;;;;;;61.30;35.50;;;6.10;99.90;;;;;;4934189;29;20999;-70
2021/11/12 13:53:08;;;;;;;62.30;37.50;;;6.10;99.90;;;;;;4937733;29;20420;-71
2021/11/12 13:55:37;;;;;;;60.57;34.87;;;6.10;99.90;;;;;;4952247;29;20932;-71
2021/11/12 13:58:05;;;;;;;58.87;35.60;;;6.10;99.90;;;;;;4955101;28;20205;-71
2021/11/12 14:00:33;;;;;;;66.20;36.47;;;6.10;99.90;;;;;;4954407;28;20477;-69
2021/11/12 14:03:05;;;;;;;62.33;37.20;;;6.00;99.90;;;;;;4954947;29;20936;-71
2021/11/12 14:05:32;;;;;;;60.63;35.53;;;6.00;99.90;;;;;;4956383;28;20421;-73
2021/11/12 14:08:00;;;;;;;64.40;36.17;;;5.90;99.90;;;;;;4955572;29;20925;-72
2021/11/12 14:10:43;;;;;;;68.77;37.27;;;5.90;99.90;;;;;;4955738;29;20495;-73
2021/11/12 14:13:12;;;;;;;63.77;36.03;;;5.80;99.90;;;;;;4955127;29;20522;-73
2021/11/12 14:21:41;;;;;;;61.93;34.67;;;5.70;99.90;;;;;;4955577;29;20440;-71
2021/11/12 14:26:51;;;;;;;58.73;33.47;;;5.50;99.90;;;;;;4955383;28;20470;-71
2021/11/12 14:35:11;;;;;;;59.47;30.70;;;5.30;99.90;;;;;;4921516;29;20475;-70
2021/11/12 14:37:54;;;;;;;63.03;31.37;;;5.20;99.90;;;;;;4935312;28;20842;-70
2021/11/12 14:40:38;;;;;;;66.77;32.10;;;5.00;99.90;;;;;;4949943;28;20482;-71
2021/11/12 14:45:46;;;;;;;56.37;31.37;;;4.80;99.90;;;;;;4935214;28;20458;-71
2021/11/12 14:53:18;;;;;;;50.70;28.67;;;4.60;99.90;;;;;;4934925;29;20438;-71
2021/11/12 14:55:49;;;;;;;50.30;27.70;;;4.50;99.90;;;;;;4935185;28;20849;-71
2021/11/12 14:58:17;;;;;;;47.23;27.63;;;4.30;99.90;;;;;;4935084;29;20407;-71
2021/11/12 15:00:44;;;;;;;53.27;28.13;;;4.30;99.90;;;;;;4935027;28;20431;-71
2021/11/12 15:03:10;;;;;;;51.87;28.73;;;4.30;99.90;;;;;;4934692;29;20439;-71
2021/11/12 15:05:36;;;;;;;54.37;27.43;;;4.20;99.90;;;;;;4934998;28;20488;-71
2021/11/12 15:08:10;;;;;;;50.30;28.20;;;4.10;99.90;;;;;;4934772;29;20214;-71
2021/11/12 15:10:36;;;;;;;58.10;30.23;;;4.10;99.90;;;;;;4932896;28;20479;-70
2021/11/12 15:13:02;;;;;;;59.00;29.73;;;4.10;99.90;;;;;;4934535;28;20498;-70
2021/11/12 15:15:27;;;;;;;70.40;29.63;;;4.00;99.90;;;;;;4934949;29;21004;-70
2021/11/12 15:17:54;;;;;;;51.27;28.23;;;4.00;99.90;;;;;;4934607;28;20680;-70
2021/11/12 15:20:20;;;;;;;58.23;28.47;;;4.00;99.90;;;;;;4934731;29;20586;-70
2021/11/12 15:25:58;;;;;;;58.33;27.70;;;3.90;99.90;;;;;;4934887;29;20984;-71
2021/11/12 15:28:49;;;;;;;61.60;29.57;;;3.90;99.90;;;;;;4934587;29;20469;-71
2021/11/12 15:31:20;;;;;;;78.70;27.60;;;3.90;99.90;;;;;;4934209;28;20472;-72
2021/11/12 15:33:52;;;;;;;70.00;30.20;;;3.90;99.90;;;;;;4934369;29;20442;-72
2021/11/12 15:36:17;;;;;;;69.10;31.03;;;4.00;99.90;;;;;;4934430;28;20462;-71
2021/11/12 15:38:52;;;;;;;68.83;30.60;;;3.90;99.90;;;;;;4934515;29;20515;-71
2021/11/12 15:44:02;;;;;;;72.30;31.67;;;3.90;99.90;;;;;;4934296;29;20445;-70
2021/11/12 15:46:36;;;;;;;153.47;33.63;;;3.90;99.90;;;;;;4934394;28;20527;-71
2021/11/12 15:49:02;;;;;;;68.77;30.67;;;3.80;99.90;;;;;;4934092;29;20481;-71
2021/11/12 15:54:20;;;;;;;61.53;31.13;;;3.80;99.90;;;;;;4934254;29;20498;-71
2021/11/12 16:02:52;;;;;;;89.37;30.30;;;3.90;99.90;;;;;;4950511;29;20464;-71
2021/11/12 16:11:00;;;;;;;63.73;30.67;;;3.70;99.90;;;;;;4934247;29;20442;-71
2021/11/12 16:13:36;;;;;;;97.13;31.00;;;3.70;99.90;;;;;;4933835;29;20438;-71
2021/11/12 16:21:38;;;;;;;119.57;28.23;;;3.50;99.90;;;;;;4934694;28;20440;-71
2021/11/12 16:24:38;;;;;;;50.13;25.10;;;3.40;99.90;;;;;;4937692;29;20852;-71
2021/11/12 16:27:05;;;;;;;96.43;29.03;;;3.50;99.90;;;;;;4920094;29;20467;-71
2021/11/12 16:29:36;;;;;;;74.17;28.73;;;3.50;99.90;;;;;;4918231;29;20494;-72
2021/11/12 16:32:05;;;;;;;62.07;27.50;;;3.50;99.90;;;;;;4918464;29;20472;-71
2021/11/12 16:34:35;;;;;;;76.63;27.20;;;3.50;99.90;;;;;;4919099;29;20931;-72
2021/11/12 16:37:02;;;;;;;100.20;27.70;;;3.50;99.90;;;;;;4918947;29;20418;-71
2021/11/12 16:42:26;;;;;;;97.20;28.93;;;3.50;99.90;;;;;;4951410;29;20762;-71
2021/11/12 16:50:28;;;;;;;80.20;26.70;;;3.30;99.90;;;;;;4956851;28;20495;-72
2021/11/12 16:53:07;;;;;;;86.67;26.20;;;3.20;99.90;;;;;;4956501;28;20441;-71
2021/11/12 16:58:20;;;;;;;100.60;31.77;;;3.20;99.90;;;;;;4956510;28;20834;-71
2021/11/12 17:03:27;;;;;;;63.70;27.30;;;3.30;99.90;;;;;;4956472;28;20422;-74
2021/11/12 17:06:19;;;;;;;68.80;26.60;;;3.30;99.90;;;;;;4956602;29;20472;-73
2021/11/12 17:09:29;;;;;;;72.00;29.50;;;3.30;99.90;;;;;;4956686;28;20451;-73
2021/11/12 17:11:45;;;;;;;129.87;28.70;;;3.20;99.90;;;;;;4957011;28;20520;-73
2021/11/12 17:48:34;;;;;;;95.43;34.07;;;3.20;99.90;;;;;;4936018;29;20478;-74
2021/11/12 18:02:04;;;;;;;65.70;32.67;;;3.30;99.90;;;;;;4924924;29;20504;-73
2021/11/12 18:05:37;;;;;;;84.03;32.33;;;3.40;99.90;;;;;;4919603;29;20517;-73
2021/11/12 18:10:17;;;;;;;64.10;28.97;;;3.40;99.90;;;;;;4935364;28;20932;-72
2021/11/12 21:46:42;;;;;;;49.93;26.93;;;3.00;99.90;;;;;;4917776;29;20436;-72
2021/11/12 21:49:00;;;;;;;47.47;25.13;;;2.90;99.90;;;;;;4931144;29;20439;-73
2021/11/12 21:51:33;;;;;;;43.30;25.63;;;2.80;99.90;;;;;;4917844;29;20501;-74
2021/11/12 21:54:01;;;;;;;48.63;26.83;;;2.70;99.90;;;;;;4916621;29;20474;-73
2021/11/12 21:56:28;;;;;;;38.97;23.63;;;2.70;99.90;;;;;;4917287;29;20959;-73
2021/11/12 21:58:54;;;;;;;41.53;25.90;;;2.70;99.90;;;;;;4919965;29;20465;-73
2021/11/12 22:01:21;;;;;;;41.67;26.80;;;2.70;99.90;;;;;;4924938;29;20569;-73
2021/11/12 22:03:48;;;;;;;41.30;24.67;;;2.60;99.90;;;;;;4916805;29;20592;-72
2021/11/12 22:06:14;;;;;;;40.97;22.70;;;2.60;99.90;;;;;;4916715;29;20476;-73
2021/11/12 22:08:40;;;;;;;36.63;23.20;;;2.50;99.90;;;;;;4916897;29;20488;-73
2021/11/12 22:11:07;;;;;;;36.03;22.50;;;2.50;99.90;;;;;;4928065;29;20519;-73
2021/11/12 22:13:37;;;;;;;45.90;24.30;;;2.40;99.90;;;;;;4916577;29;21051;-74
2021/11/12 22:16:03;;;;;;;34.93;21.73;;;2.40;99.90;;;;;;4916532;29;20549;-74
2021/11/12 22:18:29;;;;;;;34.77;22.67;;;2.40;99.90;;;;;;4916381;29;20506;-73
2021/11/12 22:20:54;;;;;;;35.67;23.03;;;2.40;99.90;;;;;;4922322;29;20507;-73
2021/11/12 22:23:20;;;;;;;37.40;22.73;;;2.40;99.90;;;;;;4921366;28;20252;-73
2021/11/12 22:25:47;;;;;;;41.50;22.70;;;2.40;99.90;;;;;;4931443;29;20226;-74
2021/11/12 22:28:13;;;;;;;35.90;23.67;;;2.40;99.90;;;;;;4916205;29;20230;-73
2021/11/12 22:30:39;;;;;;;34.47;22.67;;;2.40;99.90;;;;;;4916479;29;20481;-74
2021/11/12 22:33:06;;;;;;;37.30;23.13;;;2.40;99.90;;;;;;4926991;28;20280;-74
2021/11/12 22:35:32;;;;;;;41.73;24.10;;;2.40;99.90;;;;;;4916612;29;20433;-74
2021/11/12 22:37:58;;;;;;;41.57;25.10;;;2.40;99.90;;;;;;4916244;29;20482;-73
2021/11/12 22:40:24;;;;;;;41.27;24.97;;;2.40;99.90;;;;;;4916388;29;20461;-74
2021/11/12 22:42:50;;;;;;;41.27;24.40;;;2.40;99.90;;;;;;4923653;29;20463;-74
2021/11/12 22:45:16;;;;;;;35.77;22.33;;;2.30;99.90;;;;;;4919454;29;20425;-74
2021/11/12 22:47:44;;;;;;;39.10;24.20;;;2.30;99.90;;;;;;4916339;29;20699;-74
2021/11/12 22:50:12;;;;;;;40.13;22.90;;;2.30;99.90;;;;;;4915944;29;20845;-74
2021/11/12 22:52:38;;;;;;;42.23;24.73;;;2.40;99.90;;;;;;4930081;28;20445;-73
2021/11/12 22:55:05;;;;;;;45.67;24.77;;;2.40;99.90;;;;;;4923624;29;20486;-75
2021/11/12 22:57:31;;;;;;;41.90;23.47;;;2.40;99.90;;;;;;4934984;28;20234;-74
2021/11/12 22:59:57;;;;;;;40.07;25.83;;;2.40;99.90;;;;;;4934960;29;20466;-74
2021/11/12 23:02:22;;;;;;;42.87;24.90;;;2.40;99.90;;;;;;4934440;28;20882;-74
2021/11/12 23:04:48;;;;;;;40.10;25.30;;;2.40;99.90;;;;;;4934580;29;20224;-75
2021/11/12 23:07:14;;;;;;;43.80;24.70;;;2.40;99.90;;;;;;4915167;29;20308;-74
2021/11/12 23:09:40;;;;;;;42.77;24.50;;;2.40;99.90;;;;;;4915705;29;20248;-75
2021/11/12 23:12:07;;;;;;;46.90;26.67;;;2.40;99.90;;;;;;4915435;29;21064;-72
2021/11/12 23:14:32;;;;;;;47.43;26.97;;;2.40;99.90;;;;;;4917061;29;20540;-74
2021/11/12 23:16:58;;;;;;;46.73;25.43;;;2.50;99.90;;;;;;4925219;29;20552;-74
2021/11/12 23:19:23;;;;;;;47.20;28.30;;;2.40;99.90;;;;;;4915619;29;20625;-74
2021/11/12 23:21:49;;;;;;;51.00;26.53;;;2.50;99.90;;;;;;4915510;29;20594;-75
2021/11/12 23:24:15;;;;;;;49.63;25.83;;;2.50;99.90;;;;;;4915430;29;20291;-74
2021/11/12 23:26:40;;;;;;;44.97;26.30;;;2.40;99.90;;;;;;4926564;29;21030;-74
2021/11/12 23:29:06;;;;;;;49.27;23.50;;;2.40;99.90;;;;;;4915290;29;20718;-74
2021/11/12 23:31:32;;;;;;;79.50;26.03;;;2.40;99.90;;;;;;4914616;29;20296;-75
2021/11/12 23:33:58;;;;;;;58.27;26.83;;;2.40;99.90;;;;;;4926226;29;20232;-74
2021/11/12 23:36:24;;;;;;;81.13;28.60;;;2.40;99.90;;;;;;4934217;29;20456;-74
2021/11/12 23:38:49;;;;;;;78.37;28.13;;;2.40;99.90;;;;;;4918721;28;22869;-74
2021/11/12 23:41:18;;;;;;;48.03;27.23;;;2.30;99.90;;;;;;4934506;29;20256;-73
2021/11/12 23:43:47;;;;;;;76.73;27.93;;;2.20;99.90;;;;;;4934291;29;20224;-73
2021/11/12 23:46:13;;;;;;;162.87;29.63;;;2.20;99.90;;;;;;4933464;29;20441;-73
2021/11/12 23:48:38;;;;;;;75.60;28.00;;;2.20;99.90;;;;;;4934396;29;20500;-73
2021/11/12 23:51:04;;;;;;;63.20;26.40;;;2.20;99.90;;;;;;4934411;29;20205;-74
2021/11/12 23:53:30;;;;;;;68.00;27.10;;;2.20;99.90;;;;;;4934285;29;20180;-73
2021/11/12 23:55:55;;;;;;;42.90;25.20;;;2.20;99.90;;;;;;4934538;29;20556;-73
2021/11/12 23:58:21;;;;;;;41.37;26.30;;;2.20;99.90;;;;;;4934294;29;20193;-73
